sensor_id;sensor_type;location;lat;lon;timestamp;pressure;altitude;pressure_sealevel;temperature;humidity
23303;BME280;11820;48.738;9.092;2023-04-26T00:01:28;96311.53;;;7.87;100.00
23303;BME280;11820;48.738;9.092;2023-04-26T00:03:54;96314.09;;;7.87;100.00
23303;BME280;11820;48.738;9.092;2023-04-26T00:06:20;96312.44;;;7.94;100.00
23303;BME280;11820;48.738;9.092;2023-04-26T00:08:45;96314.28;;;7.86;100.00
23303;BME280;11820;48.738;9.092;2023-04-26T00:11:11;96310.94;;;7.63;100.00
23303;BME280;11820;48.738;9.092;2023-04-26T00:13:36;96313.97;;;7.66;100.00
23303;BME280;11820;48.738;9.092;2023-04-26T00:16:03;96308.75;;;7.74;100.00
23303;BME280;11820;48.738;9.092;2023-04-26T00:18:28;96314.88;;;7.73;100.00
23303;BME280;11820;48.738;9.092;2023-04-26T00:20:55;96307.78;;;7.75;100.00
23303;BME280;11820;48.738;9.092;2023-04-26T00:23:21;96312.28;;;7.73;100.00
23303;BME280;11820;48.738;9.092;2023-04-26T00:25:46;96302.44;;;7.62;100.00
23303;BME280;11820;48.738;9.092;2023-04-26T00:28:11;96306.97;;;7.60;100.00
23303;BME280;11820;48.738;9.092;2023-04-26T00:30:37;96304.78;;;7.72;100.00
23303;BME280;11820;48.738;9.092;2023-04-26T00:33:05;96303.34;;;7.69;100.00
23303;BME280;11820;48.738;9.092;2023-04-26T00:35:30;96306.97;;;7.60;100.00
23303;BME280;11820;48.738;9.092;2023-04-26T00:37:55;96302.63;;;7.75;100.00
23303;BME280;11820;48.738;9.092;2023-04-26T00:40:21;96315.47;;;7.61;100.00
23303;BME280;11820;48.738;9.092;2023-04-26T00:42:46;96306.34;;;7.58;100.00
23303;BME280;11820;48.738;9.092;2023-04-26T00:45:11;96312.25;;;7.59;100.00
23303;BME280;11820;48.738;9.092;2023-04-26T00:47:37;96311.13;;;7.61;100.00
23303;BME280;11820;48.738;9.092;2023-04-26T00:50:02;96310.31;;;7.61;100.00
23303;BME280;11820;48.738;9.092;2023-04-26T00:52:29;96313.63;;;7.69;100.00
23303;BME280;11820;48.738;9.092;2023-04-26T00:54:55;96316.03;;;7.71;100.00
23303;BME280;11820;48.738;9.092;2023-04-26T00:57:21;96316.38;;;7.68;100.00
23303;BME280;11820;48.738;9.092;2023-04-26T00:59:46;96306.97;;;7.60;100.00
23303;BME280;11820;48.738;9.092;2023-04-26T01:02:12;96309.34;;;7.62;100.00
23303;BME280;11820;48.738;9.092;2023-04-26T01:04:37;96324.06;;;7.53;100.00
23303;BME280;11820;48.738;9.092;2023-04-26T01:07:05;96319.25;;;7.50;100.00
23303;BME280;11820;48.738;9.092;2023-04-26T01:09:31;96319.19;;;7.58;100.00
23303;BME280;11820;48.738;9.092;2023-04-26T01:11:57;96324.19;;;7.74;100.00
23303;BME280;11820;48.738;9.092;2023-04-26T01:14:24;96316.56;;;7.81;100.00
23303;BME280;11820;48.738;9.092;2023-04-26T01:16:50;96317.88;;;7.62;100.00
23303;BME280;11820;48.738;9.092;2023-04-26T01:19:16;96321.78;;;7.58;100.00
23303;BME280;11820;48.738;9.092;2023-04-26T01:21:42;96309.41;;;7.54;100.00
23303;BME280;11820;48.738;9.092;2023-04-26T01:24:12;96303.50;;;7.53;100.00
23303;BME280;11820;48.738;9.092;2023-04-26T01:26:38;96302.78;;;7.59;100.00
23303;BME280;11820;48.738;9.092;2023-04-26T01:29:20;96307.94;;;7.59;100.00
23303;BME280;11820;48.738;9.092;2023-04-26T01:31:46;96304.75;;;7.57;100.00
23303;BME280;11820;48.738;9.092;2023-04-26T01:34:11;96313.44;;;7.34;100.00
23303;BME280;11820;48.738;9.092;2023-04-26T01:36:37;96309.38;;;7.39;100.00
23303;BME280;11820;48.738;9.092;2023-04-26T01:39:03;96311.94;;;7.39;100.00
23303;BME280;11820;48.738;9.092;2023-04-26T01:41:28;96311.31;;;7.37;100.00
23303;BME280;11820;48.738;9.092;2023-04-26T01:43:54;96314.38;;;7.41;100.00
23303;BME280;11820;48.738;9.092;2023-04-26T01:46:20;96315.69;;;7.51;100.00
23303;BME280;11820;48.738;9.092;2023-04-26T01:48:45;96314.19;;;7.42;100.00
23303;BME280;11820;48.738;9.092;2023-04-26T01:51:11;96314.56;;;7.54;100.00
23303;BME280;11820;48.738;9.092;2023-04-26T01:53:36;96311.66;;;7.34;100.00
23303;BME280;11820;48.738;9.092;2023-04-26T01:56:02;96317.53;;;7.20;100.00
23303;BME280;11820;48.738;9.092;2023-04-26T01:58:29;96304.94;;;7.33;100.00
23303;BME280;11820;48.738;9.092;2023-04-26T02:00:55;96307.50;;;7.33;100.00
23303;BME280;11820;48.738;9.092;2023-04-26T02:03:21;96305.75;;;7.48;100.00
23303;BME280;11820;48.738;9.092;2023-04-26T02:05:46;96301.03;;;7.37;100.00
23303;BME280;11820;48.738;9.092;2023-04-26T02:08:11;96299.72;;;7.41;100.00
23303;BME280;11820;48.738;9.092;2023-04-26T02:10:37;96300.69;;;7.40;100.00
23303;BME280;11820;48.738;9.092;2023-04-26T02:13:03;96298.94;;;7.41;100.00
23303;BME280;11820;48.738;9.092;2023-04-26T02:15:29;96303.38;;;7.24;100.00
23303;BME280;11820;48.738;9.092;2023-04-26T02:17:55;96298.22;;;7.24;100.00
23303;BME280;11820;48.738;9.092;2023-04-26T02:20:20;96298.91;;;7.18;100.00
23303;BME280;11820;48.738;9.092;2023-04-26T02:22:46;96306.28;;;7.21;100.00
23303;BME280;11820;48.738;9.092;2023-04-26T02:25:11;96302.81;;;7.14;100.00
23303;BME280;11820;48.738;9.092;2023-04-26T02:27:36;96303.94;;;7.12;100.00
23303;BME280;11820;48.738;9.092;2023-04-26T02:30:03;96308.56;;;7.16;100.00
23303;BME280;11820;48.738;9.092;2023-04-26T02:32:28;96314.50;;;6.94;100.00
23303;BME280;11820;48.738;9.092;2023-04-26T02:34:53;96311.34;;;6.84;100.00
23303;BME280;11820;48.738;9.092;2023-04-26T02:37:20;96306.28;;;6.99;100.00
23303;BME280;11820;48.738;9.092;2023-04-26T02:39:49;96317.53;;;6.98;100.00
23303;BME280;11820;48.738;9.092;2023-04-26T02:42:15;96324.44;;;6.97;100.00
23303;BME280;11820;48.738;9.092;2023-04-26T02:44:41;96320.75;;;7.00;100.00
23303;BME280;11820;48.738;9.092;2023-04-26T02:47:07;96316.31;;;6.86;100.00
23303;BME280;11820;48.738;9.092;2023-04-26T02:49:32;96310.19;;;6.87;100.00
23303;BME280;11820;48.738;9.092;2023-04-26T02:51:57;96310.94;;;7.03;100.00
23303;BME280;11820;48.738;9.092;2023-04-26T02:54:23;96311.56;;;7.05;100.00
23303;BME280;11820;48.738;9.092;2023-04-26T02:56:48;96313.53;;;6.95;100.00
23303;BME280;11820;48.738;9.092;2023-04-26T02:59:13;96302.13;;;6.98;100.00
23303;BME280;11820;48.738;9.092;2023-04-26T03:01:39;96309.28;;;7.10;100.00
23303;BME280;11820;48.738;9.092;2023-04-26T03:04:04;96312.22;;;6.99;100.00
23303;BME280;11820;48.738;9.092;2023-04-26T03:06:30;96311.56;;;7.05;100.00
23303;BME280;11820;48.738;9.092;2023-04-26T03:08:55;96314.75;;;7.07;100.00
23303;BME280;11820;48.738;9.092;2023-04-26T03:11:20;96314.41;;;7.10;100.00
23303;BME280;11820;48.738;9.092;2023-04-26T03:13:46;96316.06;;;7.03;100.00
23303;BME280;11820;48.738;9.092;2023-04-26T03:16:11;96312.63;;;6.88;100.00
23303;BME280;11820;48.738;9.092;2023-04-26T03:18:36;96312.28;;;6.91;100.00
23303;BME280;11820;48.738;9.092;2023-04-26T03:21:02;96313.03;;;7.00;100.00
23303;BME280;11820;48.738;9.092;2023-04-26T03:23:27;96320.13;;;6.98;100.00
23303;BME280;11820;48.738;9.092;2023-04-26T03:25:53;96320.63;;;6.93;100.00
23303;BME280;11820;48.738;9.092;2023-04-26T03:28:18;96317.63;;;6.82;100.00
23303;BME280;11820;48.738;9.092;2023-04-26T03:30:44;96317.97;;;7.01;100.00
23303;BME280;11820;48.738;9.092;2023-04-26T03:33:11;96311.38;;;7.07;100.00
23303;BME280;11820;48.738;9.092;2023-04-26T03:35:37;96314.84;;;6.91;100.00
23303;BME280;11820;48.738;9.092;2023-04-26T03:38:02;96311.34;;;6.84;100.00
23303;BME280;11820;48.738;9.092;2023-04-26T03:40:28;96306.91;;;6.78;100.00
23303;BME280;11820;48.738;9.092;2023-04-26T03:42:53;96311.44;;;6.68;100.00
23303;BME280;11820;48.738;9.092;2023-04-26T03:45:19;96307.09;;;6.69;100.00
23303;BME280;11820;48.738;9.092;2023-04-26T03:47:44;96308.00;;;6.53;100.00
23303;BME280;11820;48.738;9.092;2023-04-26T03:50:10;96301.91;;;6.46;100.00
23303;BME280;11820;48.738;9.092;2023-04-26T03:52:36;96300.28;;;6.53;100.00
23303;BME280;11820;48.738;9.092;2023-04-26T03:55:01;96308.63;;;6.47;100.00
23303;BME280;11820;48.738;9.092;2023-04-26T03:57:26;96304.88;;;6.28;100.00
23303;BME280;11820;48.738;9.092;2023-04-26T03:59:52;96307.84;;;6.47;100.00
23303;BME280;11820;48.738;9.092;2023-04-26T04:02:17;96317.94;;;6.48;100.00
23303;BME280;11820;48.738;9.092;2023-04-26T04:04:42;96318.63;;;6.42;100.00
23303;BME280;11820;48.738;9.092;2023-04-26T04:07:08;96318.66;;;6.35;100.00
23303;BME280;11820;48.738;9.092;2023-04-26T04:09:33;96314.47;;;6.34;100.00
23303;BME280;11820;48.738;9.092;2023-04-26T04:11:58;96320.50;;;6.48;100.00
23303;BME280;11820;48.738;9.092;2023-04-26T04:14:23;96315.34;;;6.56;100.00
23303;BME280;11820;48.738;9.092;2023-04-26T04:16:49;96312.16;;;6.46;100.00
23303;BME280;11820;48.738;9.092;2023-04-26T04:19:14;96311.25;;;6.39;100.00
23303;BME280;11820;48.738;9.092;2023-04-26T04:21:40;96310.91;;;6.42;100.00
23303;BME280;11820;48.738;9.092;2023-04-26T04:24:07;96309.94;;;6.51;100.00
23303;BME280;11820;48.738;9.092;2023-04-26T04:26:32;96313.94;;;6.46;100.00
23303;BME280;11820;48.738;9.092;2023-04-26T04:28:58;96312.50;;;6.43;100.00
23303;BME280;11820;48.738;9.092;2023-04-26T04:31:32;96314.88;;;6.53;100.00
23303;BME280;11820;48.738;9.092;2023-04-26T04:33:58;96315.59;;;6.39;100.00
23303;BME280;11820;48.738;9.092;2023-04-26T04:36:23;96310.94;;;6.35;100.00
23303;BME280;11820;48.738;9.092;2023-04-26T04:38:50;96312.22;;;6.38;100.00
23303;BME280;11820;48.738;9.092;2023-04-26T04:41:17;96319.31;;;6.29;100.00
23303;BME280;11820;48.738;9.092;2023-04-26T04:43:44;96315.41;;;6.40;100.00
23303;BME280;11820;48.738;9.092;2023-04-26T04:46:09;96315.59;;;6.31;100.00
23303;BME280;11820;48.738;9.092;2023-04-26T04:48:35;96315.91;;;6.36;100.00
23303;BME280;11820;48.738;9.092;2023-04-26T04:51:02;96312.31;;;6.53;100.00
23303;BME280;11820;48.738;9.092;2023-04-26T04:53:28;96318.91;;;6.47;100.00
23303;BME280;11820;48.738;9.092;2023-04-26T04:55:56;96325.19;;;6.37;100.00
23303;BME280;11820;48.738;9.092;2023-04-26T04:58:42;96328.41;;;6.47;100.00
23303;BME280;11820;48.738;9.092;2023-04-26T05:01:07;96332.41;;;6.41;100.00
23303;BME280;11820;48.738;9.092;2023-04-26T05:03:33;96336.78;;;6.41;100.00
23303;BME280;11820;48.738;9.092;2023-04-26T05:05:59;96340.13;;;6.41;100.00
23303;BME280;11820;48.738;9.092;2023-04-26T05:08:25;96338.47;;;6.48;100.00
23303;BME280;11820;48.738;9.092;2023-04-26T05:10:51;96337.31;;;6.59;100.00
23303;BME280;11820;48.738;9.092;2023-04-26T05:13:17;96336.19;;;6.61;100.00
23303;BME280;11820;48.738;9.092;2023-04-26T05:15:42;96346.28;;;6.63;100.00
23303;BME280;11820;48.738;9.092;2023-04-26T05:18:08;96348.41;;;6.59;100.00
23303;BME280;11820;48.738;9.092;2023-04-26T05:20:33;96349.53;;;6.57;100.00
23303;BME280;11820;48.738;9.092;2023-04-26T05:22:59;96347.41;;;6.68;100.00
23303;BME280;11820;48.738;9.092;2023-04-26T05:25:24;96352.25;;;6.63;100.00
23303;BME280;11820;48.738;9.092;2023-04-26T05:27:49;96356.91;;;6.60;100.00
23303;BME280;11820;48.738;9.092;2023-04-26T05:30:15;96359.94;;;6.63;100.00
23303;BME280;11820;48.738;9.092;2023-04-26T05:32:40;96361.63;;;6.40;100.00
23303;BME280;11820;48.738;9.092;2023-04-26T05:35:07;96355.00;;;6.54;100.00
23303;BME280;11820;48.738;9.092;2023-04-26T05:37:33;96360.44;;;6.67;100.00
23303;BME280;11820;48.738;9.092;2023-04-26T05:39:59;96371.16;;;6.70;100.00
23303;BME280;11820;48.738;9.092;2023-04-26T05:42:25;96368.44;;;6.72;100.00
23303;BME280;11820;48.738;9.092;2023-04-26T05:44:50;96365.81;;;6.80;100.00
23303;BME280;11820;48.738;9.092;2023-04-26T05:47:15;96367.91;;;6.84;100.00
23303;BME280;11820;48.738;9.092;2023-04-26T05:49:40;96372.50;;;6.97;100.00
23303;BME280;11820;48.738;9.092;2023-04-26T05:52:06;96376.47;;;6.99;100.00
23303;BME280;11820;48.738;9.092;2023-04-26T05:54:31;96371.78;;;6.80;100.00
23303;BME280;11820;48.738;9.092;2023-04-26T05:56:56;96378.72;;;7.02;100.00
23303;BME280;11820;48.738;9.092;2023-04-26T05:59:22;96371.97;;;7.01;100.00
23303;BME280;11820;48.738;9.092;2023-04-26T06:01:47;96374.38;;;7.03;100.00
23303;BME280;11820;48.738;9.092;2023-04-26T06:04:12;96372.84;;;7.16;100.00
23303;BME280;11820;48.738;9.092;2023-04-26T06:06:37;96377.25;;;7.08;100.00
23303;BME280;11820;48.738;9.092;2023-04-26T06:09:03;96376.75;;;7.12;100.00
23303;BME280;11820;48.738;9.092;2023-04-26T06:11:28;96376.25;;;7.09;100.00
23303;BME280;11820;48.738;9.092;2023-04-26T06:13:54;96376.09;;;7.10;100.00
23303;BME280;11820;48.738;9.092;2023-04-26T06:16:20;96381.25;;;7.10;100.00
23303;BME280;11820;48.738;9.092;2023-04-26T06:18:46;96395.94;;;7.24;100.00
23303;BME280;11820;48.738;9.092;2023-04-26T06:21:11;96383.16;;;7.39;100.00
23303;BME280;11820;48.738;9.092;2023-04-26T06:23:36;96383.34;;;7.37;100.00
23303;BME280;11820;48.738;9.092;2023-04-26T06:26:02;96393.22;;;7.48;100.00
23303;BME280;11820;48.738;9.092;2023-04-26T06:28:27;96389.53;;;7.51;100.00
23303;BME280;11820;48.738;9.092;2023-04-26T06:30:52;96386.44;;;7.55;100.00
23303;BME280;11820;48.738;9.092;2023-04-26T06:33:18;96386.94;;;7.73;100.00
23303;BME280;11820;48.738;9.092;2023-04-26T06:35:43;96394.94;;;7.78;100.00
23303;BME280;11820;48.738;9.092;2023-04-26T06:38:08;96391.97;;;7.89;100.00
23303;BME280;11820;48.738;9.092;2023-04-26T06:40:34;96397.22;;;7.96;100.00
23303;BME280;11820;48.738;9.092;2023-04-26T06:43:02;96394.44;;;7.97;100.00
23303;BME280;11820;48.738;9.092;2023-04-26T06:45:28;96394.53;;;7.89;100.00
23303;BME280;11820;48.738;9.092;2023-04-26T06:47:53;96389.03;;;7.92;100.00
23303;BME280;11820;48.738;9.092;2023-04-26T06:50:19;96391.41;;;7.79;100.00
23303;BME280;11820;48.738;9.092;2023-04-26T06:52:44;96388.88;;;7.94;100.00
23303;BME280;11820;48.738;9.092;2023-04-26T06:55:10;96394.03;;;7.94;100.00
23303;BME280;11820;48.738;9.092;2023-04-26T06:57:35;96389.53;;;7.88;100.00
23303;BME280;11820;48.738;9.092;2023-04-26T07:00:00;96385.72;;;7.84;100.00
23303;BME280;11820;48.738;9.092;2023-04-26T07:02:26;96383.41;;;7.89;100.00
23303;BME280;11820;48.738;9.092;2023-04-26T07:04:51;96385.69;;;7.92;100.00
23303;BME280;11820;48.738;9.092;2023-04-26T07:07:20;96389.19;;;7.91;100.00
23303;BME280;11820;48.738;9.092;2023-04-26T07:09:45;96387.28;;;7.93;100.00
23303;BME280;11820;48.738;9.092;2023-04-26T07:12:11;96389.25;;;8.05;100.00
23303;BME280;11820;48.738;9.092;2023-04-26T07:14:36;96385.41;;;8.01;100.00
23303;BME280;11820;48.738;9.092;2023-04-26T07:17:13;96377.63;;;8.09;100.00
23303;BME280;11820;48.738;9.092;2023-04-26T07:19:38;96385.97;;;8.11;100.00
23303;BME280;11820;48.738;9.092;2023-04-26T07:22:04;96376.91;;;8.15;100.00
23303;BME280;11820;48.738;9.092;2023-04-26T07:24:29;96375.53;;;8.27;100.00
23303;BME280;11820;48.738;9.092;2023-04-26T07:26:55;96385.16;;;8.33;100.00
23303;BME280;11820;48.738;9.092;2023-04-26T07:29:20;96376.09;;;8.37;100.00
23303;BME280;11820;48.738;9.092;2023-04-26T07:31:46;96374.84;;;8.33;100.00
23303;BME280;11820;48.738;9.092;2023-04-26T07:34:11;96371.28;;;8.34;100.00
23303;BME280;11820;48.738;9.092;2023-04-26T07:36:37;96368.78;;;8.55;100.00
23303;BME280;11820;48.738;9.092;2023-04-26T07:39:02;96371.72;;;8.66;100.00
23303;BME280;11820;48.738;9.092;2023-04-26T07:41:29;96370.66;;;8.75;100.00
23303;BME280;11820;48.738;9.092;2023-04-26T07:43:55;96368.94;;;8.97;100.00
23303;BME280;11820;48.738;9.092;2023-04-26T07:46:20;96367.16;;;8.97;100.00
23303;BME280;11820;48.738;9.092;2023-04-26T07:48:45;96369.31;;;8.94;100.00
23303;BME280;11820;48.738;9.092;2023-04-26T07:51:11;96371.63;;;8.89;100.00
23303;BME280;11820;48.738;9.092;2023-04-26T07:53:38;96356.28;;;9.02;100.00
23303;BME280;11820;48.738;9.092;2023-04-26T07:56:05;96367.22;;;9.04;100.00
23303;BME280;11820;48.738;9.092;2023-04-26T07:58:32;96365.34;;;9.12;100.00
23303;BME280;11820;48.738;9.092;2023-04-26T08:00:58;96374.75;;;9.20;100.00
23303;BME280;11820;48.738;9.092;2023-04-26T08:03:23;96374.38;;;9.23;100.00
23303;BME280;11820;48.738;9.092;2023-04-26T08:05:49;96373.66;;;9.29;100.00
23303;BME280;11820;48.738;9.092;2023-04-26T08:08:14;96362.88;;;9.40;100.00
23303;BME280;11820;48.738;9.092;2023-04-26T08:10:40;96368.09;;;9.46;100.00
23303;BME280;11820;48.738;9.092;2023-04-26T08:13:06;96370.88;;;9.65;100.00
23303;BME280;11820;48.738;9.092;2023-04-26T08:15:32;96368.72;;;9.48;100.00
23303;BME280;11820;48.738;9.092;2023-04-26T08:17:57;96364.78;;;9.52;100.00
23303;BME280;11820;48.738;9.092;2023-04-26T08:20:23;96366.31;;;9.67;100.00
23303;BME280;11820;48.738;9.092;2023-04-26T08:22:48;96366.56;;;9.72;100.00
23303;BME280;11820;48.738;9.092;2023-04-26T08:25:14;96370.41;;;9.83;100.00
23303;BME280;11820;48.738;9.092;2023-04-26T08:27:39;96367.53;;;9.92;100.00
23303;BME280;11820;48.738;9.092;2023-04-26T08:30:05;96364.72;;;10.15;100.00
23303;BME280;11820;48.738;9.092;2023-04-26T08:32:31;96376.63;;;9.88;100.00
23303;BME280;11820;48.738;9.092;2023-04-26T08:34:58;96377.72;;;9.79;100.00
23303;BME280;11820;48.738;9.092;2023-04-26T08:37:23;96374.91;;;9.74;100.00
23303;BME280;11820;48.738;9.092;2023-04-26T08:39:48;96377.38;;;9.62;100.00
23303;BME280;11820;48.738;9.092;2023-04-26T08:42:15;96373.31;;;9.53;100.00
23303;BME280;11820;48.738;9.092;2023-04-26T08:44:43;96369.50;;;9.49;100.00
23303;BME280;11820;48.738;9.092;2023-04-26T08:47:14;96382.16;;;9.44;100.00
23303;BME280;11820;48.738;9.092;2023-04-26T08:49:43;96390.88;;;9.43;100.00
23303;BME280;11820;48.738;9.092;2023-04-26T08:52:11;96383.44;;;9.33;100.00
23303;BME280;11820;48.738;9.092;2023-04-26T08:54:38;96383.63;;;9.32;100.00
23303;BME280;11820;48.738;9.092;2023-04-26T08:57:04;96375.09;;;9.52;100.00
23303;BME280;11820;48.738;9.092;2023-04-26T08:59:33;96379.72;;;9.36;100.00
23303;BME280;11820;48.738;9.092;2023-04-26T09:02:01;96388.56;;;9.48;100.00
23303;BME280;11820;48.738;9.092;2023-04-26T09:04:29;96389.00;;;9.51;100.00
23303;BME280;11820;48.738;9.092;2023-04-26T09:06:59;96385.34;;;9.46;100.00
23303;BME280;11820;48.738;9.092;2023-04-26T09:09:26;96391.50;;;9.45;100.00
23303;BME280;11820;48.738;9.092;2023-04-26T09:11:55;96391.88;;;9.42;100.00
23303;BME280;11820;48.738;9.092;2023-04-26T09:14:22;96396.28;;;9.48;100.00
23303;BME280;11820;48.738;9.092;2023-04-26T09:16:47;96385.22;;;9.54;100.00
23303;BME280;11820;48.738;9.092;2023-04-26T09:19:13;96384.97;;;9.49;100.00
23303;BME280;11820;48.738;9.092;2023-04-26T09:21:42;96382.94;;;9.44;100.00
23303;BME280;11820;48.738;9.092;2023-04-26T09:24:08;96381.03;;;9.53;100.00
23303;BME280;11820;48.738;9.092;2023-04-26T09:26:33;96388.25;;;9.57;100.00
23303;BME280;11820;48.738;9.092;2023-04-26T09:29:16;96376.94;;;9.58;100.00
23303;BME280;11820;48.738;9.092;2023-04-26T09:31:47;96382.16;;;9.44;100.00
23303;BME280;11820;48.738;9.092;2023-04-26T09:34:13;96376.38;;;9.42;100.00
23303;BME280;11820;48.738;9.092;2023-04-26T09:36:53;96372.59;;;9.59;100.00
23303;BME280;11820;48.738;9.092;2023-04-26T09:39:35;96368.03;;;9.61;100.00
23303;BME280;11820;48.738;9.092;2023-04-26T09:42:08;96362.97;;;9.53;100.00
23303;BME280;11820;48.738;9.092;2023-04-26T09:44:34;96368.34;;;9.72;100.00
23303;BME280;11820;48.738;9.092;2023-04-26T09:47:20;96371.09;;;9.91;100.00
23303;BME280;11820;48.738;9.092;2023-04-26T09:49:50;96368.31;;;9.93;100.00
23303;BME280;11820;48.738;9.092;2023-04-26T09:52:17;96368.84;;;10.03;100.00
23303;BME280;11820;48.738;9.092;2023-04-26T09:54:46;96369.53;;;10.18;100.00
23303;BME280;11820;48.738;9.092;2023-04-26T09:57:13;96363.09;;;10.35;100.00
23303;BME280;11820;48.738;9.092;2023-04-26T09:59:40;96369.97;;;10.55;100.00
23303;BME280;11820;48.738;9.092;2023-04-26T10:02:11;96363.19;;;10.54;100.00
23303;BME280;11820;48.738;9.092;2023-04-26T10:04:38;96361.94;;;10.44;100.00
23303;BME280;11820;48.738;9.092;2023-04-26T10:07:04;96361.94;;;10.44;100.00
23303;BME280;11820;48.738;9.092;2023-04-26T10:09:30;96355.16;;;10.36;100.00
23303;BME280;11820;48.738;9.092;2023-04-26T10:11:57;96349.22;;;10.42;100.00
23303;BME280;11820;48.738;9.092;2023-04-26T10:14:22;96351.44;;;10.18;100.00
23303;BME280;11820;48.738;9.092;2023-04-26T10:16:48;96349.50;;;10.26;100.00
23303;BME280;11820;48.738;9.092;2023-04-26T10:19:13;96354.78;;;10.39;100.00
23303;BME280;11820;48.738;9.092;2023-04-26T10:21:40;96355.50;;;10.33;100.00
23303;BME280;11820;48.738;9.092;2023-04-26T10:24:07;96345.25;;;10.46;100.00
23303;BME280;11820;48.738;9.092;2023-04-26T10:26:52;96349.88;;;10.57;100.00
23303;BME280;11820;48.738;9.092;2023-04-26T10:32:22;96344.88;;;10.49;100.00
23303;BME280;11820;48.738;9.092;2023-04-26T10:35:10;96347.28;;;10.51;100.00
23303;BME280;11820;48.738;9.092;2023-04-26T10:40:28;96343.50;;;10.87;100.00
23303;BME280;11820;48.738;9.092;2023-04-26T10:45:40;96337.63;;;11.19;100.00
23303;BME280;11820;48.738;9.092;2023-04-26T10:53:26;96337.56;;;11.85;99.41
23303;BME280;11820;48.738;9.092;2023-04-26T10:55:52;96330.97;;;12.02;97.68
23303;BME280;11820;48.738;9.092;2023-04-26T10:58:34;96324.41;;;11.87;97.66
23303;BME280;11820;48.738;9.092;2023-04-26T11:01:06;96332.38;;;11.66;98.49
23303;BME280;11820;48.738;9.092;2023-04-26T11:03:32;96325.00;;;11.63;95.92
23303;BME280;11820;48.738;9.092;2023-04-26T11:05:58;96325.94;;;11.49;97.10
23303;BME280;11820;48.738;9.092;2023-04-26T11:08:28;96330.97;;;11.70;95.73
23303;BME280;11820;48.738;9.092;2023-04-26T11:13:26;96325.38;;;11.60;95.45
23303;BME280;11820;48.738;9.092;2023-04-26T11:15:53;96318.41;;;11.60;95.13
23303;BME280;11820;48.738;9.092;2023-04-26T11:18:19;96317.75;;;11.45;93.46
23303;BME280;11820;48.738;9.092;2023-04-26T11:20:48;96314.97;;;11.47;92.42
23303;BME280;11820;48.738;9.092;2023-04-26T11:23:13;96320.56;;;11.44;94.37
23303;BME280;11820;48.738;9.092;2023-04-26T11:25:39;96315.56;;;11.49;95.29
23303;BME280;11820;48.738;9.092;2023-04-26T11:28:05;96304.66;;;11.73;94.94
23303;BME280;11820;48.738;9.092;2023-04-26T11:30:31;96296.69;;;11.68;90.95
23303;BME280;11820;48.738;9.092;2023-04-26T11:33:01;96280.91;;;12.15;91.54
23303;BME280;11820;48.738;9.092;2023-04-26T11:35:27;96286.28;;;12.20;90.29
23303;BME280;11820;48.738;9.092;2023-04-26T11:37:57;96289.06;;;12.31;88.74
23303;BME280;11820;48.738;9.092;2023-04-26T11:40:22;96276.13;;;12.75;88.00
23303;BME280;11820;48.738;9.092;2023-04-26T11:42:48;96278.81;;;13.06;86.59
23303;BME280;11820;48.738;9.092;2023-04-26T11:45:16;96261.19;;;13.45;85.05
23303;BME280;11820;48.738;9.092;2023-04-26T11:47:43;96257.22;;;13.67;85.18
23303;BME280;11820;48.738;9.092;2023-04-26T11:50:09;96272.59;;;13.44;82.35
23303;BME280;11820;48.738;9.092;2023-04-26T11:52:34;96255.47;;;13.30;81.32
23303;BME280;11820;48.738;9.092;2023-04-26T11:55:03;96249.28;;;13.00;78.12
23303;BME280;11820;48.738;9.092;2023-04-26T11:57:29;96255.09;;;13.27;78.42
23303;BME280;11820;48.738;9.092;2023-04-26T12:00:10;96248.78;;;13.47;79.01
23303;BME280;11820;48.738;9.092;2023-04-26T12:02:36;96254.44;;;13.62;79.36
23303;BME280;11820;48.738;9.092;2023-04-26T12:05:01;96246.47;;;14.06;78.28
23303;BME280;11820;48.738;9.092;2023-04-26T12:07:34;96252.38;;;13.71;75.74
23303;BME280;11820;48.738;9.092;2023-04-26T12:10:36;96247.19;;;14.13;75.90
23303;BME280;11820;48.738;9.092;2023-04-26T12:13:01;96238.28;;;14.27;76.19
23303;BME280;11820;48.738;9.092;2023-04-26T12:15:33;96250.13;;;14.23;75.10
23303;BME280;11820;48.738;9.092;2023-04-26T12:18:09;96251.56;;;13.95;73.55
23303;BME280;11820;48.738;9.092;2023-04-26T12:20:39;96256.66;;;13.83;76.25
23303;BME280;11820;48.738;9.092;2023-04-26T12:23:09;96254.44;;;13.62;77.61
23303;BME280;11820;48.738;9.092;2023-04-26T12:25:38;96249.81;;;13.15;79.79
23303;BME280;11820;48.738;9.092;2023-04-26T12:28:09;96250.00;;;13.69;82.18
23303;BME280;11820;48.738;9.092;2023-04-26T12:30:38;96247.03;;;13.41;79.07
23303;BME280;11820;48.738;9.092;2023-04-26T12:33:04;96251.91;;;12.88;78.29
23303;BME280;11820;48.738;9.092;2023-04-26T12:35:30;96249.25;;;13.07;80.79
23303;BME280;11820;48.738;9.092;2023-04-26T12:37:56;96250.72;;;12.97;78.71
23303;BME280;11820;48.738;9.092;2023-04-26T12:40:25;96254.50;;;12.94;80.32
23303;BME280;11820;48.738;9.092;2023-04-26T12:42:51;96241.91;;;13.28;79.82
23303;BME280;11820;48.738;9.092;2023-04-26T12:45:17;96244.22;;;13.67;78.42
23303;BME280;11820;48.738;9.092;2023-04-26T12:47:46;96232.38;;;16.25;72.55
23303;BME280;11820;48.738;9.092;2023-04-26T12:50:12;96237.28;;;14.75;74.27
23303;BME280;11820;48.738;9.092;2023-04-26T12:52:39;96226.16;;;14.15;74.44
23303;BME280;11820;48.738;9.092;2023-04-26T12:55:06;96228.72;;;13.54;73.41
23303;BME280;11820;48.738;9.092;2023-04-26T12:57:31;96225.34;;;13.54;75.13
23303;BME280;11820;48.738;9.092;2023-04-26T12:59:56;96237.50;;;13.78;75.56
23303;BME280;11820;48.738;9.092;2023-04-26T13:02:22;96238.69;;;13.57;77.19
23303;BME280;11820;48.738;9.092;2023-04-26T13:04:48;96230.00;;;13.45;77.82
23303;BME280;11820;48.738;9.092;2023-04-26T13:07:14;96233.34;;;13.28;78.57
23303;BME280;11820;48.738;9.092;2023-04-26T13:09:40;96221.63;;;13.43;77.29
23303;BME280;11820;48.738;9.092;2023-04-26T13:12:06;96215.41;;;13.20;76.16
23303;BME280;11820;48.738;9.092;2023-04-26T13:14:31;96216.53;;;13.30;78.20